createdAt,value
2023-05-15T00:02:12.368Z,97614.38
2023-05-15T00:04:40.851Z,97616.25
2023-05-15T00:07:07.786Z,97619.00
2023-05-15T00:09:34.349Z,97622.50
2023-05-15T00:12:00.855Z,97616.69
2023-05-15T00:14:27.352Z,97619.78
2023-05-15T00:16:53.949Z,97620.59
2023-05-15T00:19:20.849Z,97620.59
2023-05-15T00:21:47.447Z,97621.72
2023-05-15T00:24:13.937Z,97618.66
2023-05-15T00:26:40.522Z,97609.38
2023-05-15T00:31:41.778Z,97595.44
2023-05-15T00:34:08.343Z,97604.72
2023-05-15T00:36:35.599Z,97593.13
2023-05-15T00:39:02.135Z,97598.50
2023-05-15T00:41:32.162Z,97588.44
2023-05-15T00:44:00.793Z,97586.16
2023-05-15T00:46:28.356Z,97580.38
2023-05-15T00:48:56.314Z,97588.06
2023-05-15T00:51:22.808Z,97583.03
2023-05-15T00:53:55.094Z,97578.81
2023-05-15T00:56:22.373Z,97574.53
2023-05-15T00:58:54.015Z,97576.09
2023-05-15T01:01:20.729Z,97578.41
2023-05-15T01:03:47.333Z,97584.22
2023-05-15T01:06:20.460Z,97579.19
2023-05-15T01:08:47.767Z,97577.63
2023-05-15T01:11:15.701Z,97575.72
2023-05-15T01:13:42.868Z,97579.19
2023-05-15T01:16:10.433Z,97584.97
2023-05-15T01:18:39.104Z,97583.78
2023-05-15T01:21:27.395Z,97577.63
2023-05-15T01:24:22.608Z,97582.25
2023-05-15T01:27:10.984Z,97580.69
2023-05-15T01:29:55.687Z,97583.75
2023-05-15T01:32:43.358Z,97574.44
2023-05-15T01:35:27.841Z,97586.34
2023-05-15T01:38:19.232Z,97580.56
2023-05-15T01:40:48.936Z,97584.06
2023-05-15T01:43:23.166Z,97579.03
2023-05-15T01:45:49.772Z,97576.69
2023-05-15T01:48:19.331Z,97575.91
2023-05-15T01:50:51.486Z,97581.31
2023-05-15T01:53:20.190Z,97578.63
2023-05-15T01:55:48.887Z,97578.63
2023-05-15T01:58:16.143Z,97572.78
2023-05-15T02:00:44.625Z,97573.97
2023-05-15T02:03:11.298Z,97569.31
2023-05-15T02:05:38.917Z,97568.94
2023-05-15T02:08:11.216Z,97569.31
2023-05-15T02:10:38.846Z,97568.91
2023-05-15T02:13:09.215Z,97571.19
2023-05-15T02:15:36.636Z,97571.94
2023-05-15T02:18:03.415Z,97567.63
2023-05-15T02:20:31.858Z,97566.84
2023-05-15T02:22:58.484Z,97563.38
2023-05-15T02:25:38.647Z,97565.63
2023-05-15T02:28:08.844Z,97560.22
2023-05-15T02:30:55.970Z,97567.16
2023-05-15T02:34:01.512Z,97561.75
2023-05-15T02:36:32.448Z,97565.22
2023-05-15T02:39:00.724Z,97568.66
2023-05-15T02:41:28.175Z,97569.81
2023-05-15T02:43:56.390Z,97567.88
2023-05-15T02:46:25.419Z,97570.13
2023-05-15T02:48:53.687Z,97573.97
2023-05-15T02:51:21.076Z,97578.56
2023-05-15T02:53:47.953Z,97569.38
2023-05-15T02:56:14.480Z,97577.09
2023-05-15T02:58:43.934Z,97572.47
2023-05-15T03:01:14.355Z,97566.28
2023-05-15T03:03:40.847Z,97576.31
2023-05-15T03:06:07.473Z,97570.84
2023-05-15T03:08:34.167Z,97572.41
2023-05-15T03:11:00.706Z,97577.00
2023-05-15T03:13:27.654Z,97572.34
2023-05-15T03:15:54.130Z,97577.00
2023-05-15T03:18:20.734Z,97586.66
2023-05-15T03:20:53.474Z,97577.69
2023-05-15T03:23:19.983Z,97574.28
2023-05-15T03:25:46.611Z,97577.75
2023-05-15T03:28:13.187Z,97579.69
2023-05-15T03:30:43.765Z,97574.66
2023-05-15T03:33:10.377Z,97574.66
2023-05-15T03:35:36.893Z,97571.59
2023-05-15T03:38:03.372Z,97566.19
2023-05-15T03:40:29.854Z,97568.91
2023-05-15T03:42:56.627Z,97561.16
2023-05-15T03:45:23.567Z,97555.38
2023-05-15T03:47:50.365Z,97553.06
2023-05-15T03:50:16.947Z,97548.44
2023-05-15T03:52:43.873Z,97539.91
2023-05-15T03:55:10.473Z,97550.69
2023-05-15T03:57:37.213Z,97557.72
2023-05-15T04:00:07.430Z,97571.59
2023-05-15T04:02:34.258Z,97574.63
2023-05-15T04:05:00.796Z,97568.88
2023-05-15T04:07:27.296Z,97575.03
2023-05-15T04:09:55.677Z,97571.97
2023-05-15T04:12:22.759Z,97577.31
2023-05-15T04:14:49.510Z,97577.75
2023-05-15T04:17:16.041Z,97567.00
2023-05-15T04:19:47.889Z,97572.34
2023-05-15T04:22:14.376Z,97571.22
2023-05-15T04:24:40.889Z,97577.31
2023-05-15T04:27:09.417Z,97574.28
2023-05-15T04:29:35.948Z,97571.94
2023-05-15T04:32:02.456Z,97573.91
2023-05-15T04:34:29.487Z,97577.41
2023-05-15T04:36:56.061Z,97573.97
2023-05-15T04:39:22.790Z,97573.97
2023-05-15T04:41:49.518Z,97577.47
2023-05-15T04:44:16.019Z,97583.25
2023-05-15T04:46:42.618Z,97592.13
2023-05-15T04:49:09.242Z,97585.56
2023-05-15T04:51:38.073Z,97596.03
2023-05-15T04:54:04.849Z,97593.31
2023-05-15T04:56:31.926Z,97596.06
2023-05-15T04:58:58.480Z,97598.06
2023-05-15T05:01:25.559Z,97604.66
2023-05-15T05:03:55.145Z,97598.09
2023-05-15T05:06:23.235Z,97603.16
2023-05-15T05:08:49.783Z,97608.97
2023-05-15T05:11:16.438Z,97602.78
2023-05-15T05:13:46.883Z,97607.84
2023-05-15T05:16:16.809Z,97607.47
2023-05-15T05:18:43.339Z,97609.03
2023-05-15T05:21:09.933Z,97604.00
2023-05-15T05:23:36.444Z,97609.44
2023-05-15T05:26:04.200Z,97620.69
2023-05-15T05:28:31.845Z,97615.66
2023-05-15T05:31:02.029Z,97618.41
2023-05-15T05:33:28.718Z,97613.81
2023-05-15T05:35:55.848Z,97619.22
2023-05-15T05:38:24.829Z,97622.72
2023-05-15T05:40:51.267Z,97619.25
2023-05-15T05:43:17.768Z,97609.25
2023-05-15T05:45:44.305Z,97608.50
2023-05-15T05:48:11.023Z,97601.97
2023-05-15T05:50:37.829Z,97605.47
2023-05-15T05:53:04.287Z,97603.94
2023-05-15T05:55:30.829Z,97608.59
2023-05-15T05:57:57.674Z,97602.41
2023-05-15T06:00:25.034Z,97598.56
2023-05-15T06:02:55.988Z,97593.94
2023-05-15T06:05:23.580Z,97601.34
2023-05-15T06:07:50.761Z,97611.78
2023-05-15T06:10:17.269Z,97605.66
2023-05-15T06:12:45.592Z,97603.34
2023-05-15T06:15:12.602Z,97604.56
2023-05-15T06:17:39.878Z,97605.34
2023-05-15T06:20:08.404Z,97614.22
2023-05-15T06:22:37.756Z,97617.34
2023-05-15T06:25:05.774Z,97611.16
2023-05-15T06:27:33.098Z,97611.91
2023-05-15T06:29:59.824Z,97618.91
2023-05-15T06:32:26.441Z,97611.19
2023-05-15T06:34:52.915Z,97612.38
2023-05-15T06:37:19.386Z,97614.69
2023-05-15T06:39:45.933Z,97621.28
2023-05-15T06:42:12.709Z,97618.19
2023-05-15T06:44:39.140Z,97617.03
2023-05-15T06:47:06.290Z,97617.81
2023-05-15T06:49:32.904Z,97614.72
2023-05-15T06:51:59.436Z,97613.56
2023-05-15T06:54:26.301Z,97615.88
2023-05-15T06:56:52.763Z,97616.28
2023-05-15T06:59:22.913Z,97619.00
2023-05-15T07:01:49.452Z,97621.34
2023-05-15T07:04:16.022Z,97624.06
2023-05-15T07:06:43.250Z,97620.19
2023-05-15T07:09:09.714Z,97619.81
2023-05-15T07:11:38.798Z,97621.34
2023-05-15T07:14:08.288Z,97614.78
2023-05-15T07:16:34.778Z,97610.13
2023-05-15T07:19:01.816Z,97618.25
2023-05-15T07:21:28.357Z,97614.38
2023-05-15T07:23:54.808Z,97620.94
2023-05-15T07:26:32.497Z,97616.31
2023-05-15T07:29:04.137Z,97624.06
2023-05-15T07:31:34.782Z,97615.91
2023-05-15T07:34:01.298Z,97622.13
2023-05-15T07:36:27.831Z,97621.72
2023-05-15T07:38:54.364Z,97622.50
2023-05-15T07:41:21.023Z,97622.47
2023-05-15T07:43:47.663Z,97625.97
2023-05-15T07:46:14.160Z,97623.69
2023-05-15T07:48:40.689Z,97624.84
2023-05-15T07:51:07.700Z,97631.38
2023-05-15T07:53:34.186Z,97625.22
2023-05-15T07:56:00.999Z,97624.03
2023-05-15T07:58:27.507Z,97622.09
2023-05-15T08:00:54.221Z,97627.91
2023-05-15T08:03:20.895Z,97624.44
2023-05-15T08:05:47.616Z,97622.84
2023-05-15T08:08:17.791Z,97630.63
2023-05-15T08:10:44.289Z,97634.09
2023-05-15T08:13:10.804Z,97634.50
2023-05-15T08:15:41.670Z,97636.03
2023-05-15T08:18:11.678Z,97626.72
2023-05-15T08:20:40.861Z,97624.00
2023-05-15T08:23:07.772Z,97623.22
2023-05-15T08:25:34.288Z,97619.34
2023-05-15T08:28:02.174Z,97618.19
2023-05-15T08:30:31.717Z,97620.13
2023-05-15T08:32:58.233Z,97618.16
2023-05-15T08:35:24.863Z,97621.25
2023-05-15T08:37:51.524Z,97623.97
2023-05-15T08:40:21.366Z,97621.25
2023-05-15T08:42:56.608Z,97618.50
2023-05-15T08:45:24.148Z,97618.06
2023-05-15T08:47:51.223Z,97618.78
2023-05-15T08:50:17.830Z,97621.88
2023-05-15T08:52:46.941Z,97612.53
2023-05-15T08:55:19.785Z,97610.53
2023-05-15T08:57:47.904Z,97613.16
2023-05-15T09:00:15.143Z,97608.84
2023-05-15T09:05:10.125Z,97607.13
2023-05-15T09:07:40.048Z,97607.06
2023-05-15T09:10:07.651Z,97601.50
2023-05-15T09:12:34.868Z,97599.31
2023-05-15T09:15:17.724Z,97595.06
2023-05-15T09:17:45.816Z,97586.47
2023-05-15T09:20:30.023Z,97584.81
2023-05-15T09:22:57.668Z,97588.47
2023-05-15T09:25:39.869Z,97594.59
2023-05-15T09:28:11.281Z,97584.72
2023-05-15T09:30:38.990Z,97580.25
2023-05-15T09:33:05.835Z,97579.59
2023-05-15T09:35:34.349Z,97579.75
2023-05-15T09:38:02.446Z,97573.50
2023-05-15T09:40:30.745Z,97571.31
2023-05-15T09:42:57.964Z,97576.13
2023-05-15T09:45:27.327Z,97574.88
2023-05-15T09:47:54.400Z,97577.25
2023-05-15T09:50:33.542Z,97573.06
2023-05-15T09:53:01.008Z,97581.19
2023-05-15T09:55:27.719Z,97569.63
2023-05-15T09:58:13.682Z,97576.16
2023-05-15T10:00:48.708Z,97572.41
2023-05-15T10:03:18.392Z,97575.25
2023-05-15T10:05:45.168Z,97569.69
2023-05-15T10:08:12.676Z,97567.47
2023-05-15T10:10:39.292Z,97565.31
2023-05-15T10:13:08.444Z,97568.72
2023-05-15T10:15:37.424Z,97562.28
2023-05-15T10:18:06.483Z,97563.81
2023-05-15T10:20:35.642Z,97557.22
2023-05-15T10:23:04.923Z,97550.34
2023-05-15T10:26:10.028Z,97542.31
2023-05-15T10:28:37.700Z,97535.59
2023-05-15T10:31:05.805Z,97535.81
2023-05-15T10:33:32.972Z,97532.94
2023-05-15T10:36:00.081Z,97528.53
2023-05-15T10:38:27.792Z,97524.81
2023-05-15T10:41:05.522Z,97528.50
2023-05-15T10:43:42.349Z,97514.38
2023-05-15T10:46:15.101Z,97507.34
2023-05-15T10:48:42.397Z,97503.50
2023-05-15T10:51:24.081Z,97494.81
2023-05-15T10:53:51.641Z,97494.41
2023-05-15T10:56:20.197Z,97486.09
2023-05-15T10:58:51.004Z,97481.75
2023-05-15T11:01:35.382Z,97483.16
2023-05-15T11:04:07.702Z,97480.25
2023-05-15T11:06:35.034Z,97474.25
2023-05-15T11:09:33.736Z,97474.09
2023-05-15T11:12:02.421Z,97469.63
2023-05-15T11:14:33.946Z,97473.03
2023-05-15T11:17:21.560Z,97478.00
2023-05-15T11:19:52.884Z,97475.38
2023-05-15T11:22:23.049Z,97475.81
2023-05-15T11:25:02.602Z,97462.44
2023-05-15T11:27:30.368Z,97464.00
2023-05-15T11:30:23.375Z,97455.59
2023-05-15T11:33:11.464Z,97449.22
2023-05-15T11:35:48.570Z,97457.69
2023-05-15T11:38:18.488Z,97454.19
2023-05-15T11:40:52.949Z,97441.59
2023-05-15T11:43:19.550Z,97439.91
2023-05-15T11:45:53.228Z,97439.88
2023-05-15T11:48:20.260Z,97428.72
2023-05-15T11:50:46.966Z,97424.81
2023-05-15T11:53:13.987Z,97428.28
2023-05-15T11:55:42.067Z,97421.94
2023-05-15T11:58:13.789Z,97422.44
2023-05-15T12:00:43.134Z,97422.88
2023-05-15T12:03:20.506Z,97426.44
2023-05-15T12:05:58.382Z,97424.31
2023-05-15T12:08:30.644Z,97421.66
2023-05-15T12:11:00.530Z,97426.59
2023-05-15T12:13:30.951Z,97422.16
2023-05-15T12:15:58.145Z,97427.06
2023-05-15T12:18:24.844Z,97424.09
2023-05-15T12:20:56.603Z,97426.31
2023-05-15T12:23:25.326Z,97421.50
2023-05-15T12:25:59.537Z,97412.38
2023-05-15T12:28:26.996Z,97409.41
2023-05-15T12:30:54.501Z,97406.16
2023-05-15T12:33:21.673Z,97413.34
2023-05-15T12:35:56.887Z,97402.25
2023-05-15T12:38:27.904Z,97413.81
2023-05-15T12:40:54.605Z,97411.53
2023-05-15T12:43:24.816Z,97402.88
2023-05-15T12:45:53.196Z,97407.22
2023-05-15T12:48:19.934Z,97411.97
2023-05-15T12:50:46.975Z,97404.94
2023-05-15T12:53:17.973Z,97398.81
2023-05-15T12:55:46.526Z,97405.97
2023-05-15T12:58:15.214Z,97404.38
2023-05-15T13:00:43.309Z,97407.25
2023-05-15T13:03:11.528Z,97397.84
2023-05-15T13:05:42.559Z,97393.53
2023-05-15T13:08:09.282Z,97392.72
2023-05-15T13:10:38.077Z,97392.03
2023-05-15T13:13:04.667Z,97389.03
2023-05-15T13:15:31.122Z,97390.69
2023-05-15T13:18:01.078Z,97395.22
2023-05-15T13:20:29.854Z,97391.31
2023-05-15T13:22:58.181Z,97392.00
2023-05-15T13:25:28.806Z,97385.72
2023-05-15T13:27:58.790Z,97384.63
2023-05-15T13:30:26.141Z,97393.63
2023-05-15T13:32:55.497Z,97398.69
2023-05-15T13:35:25.163Z,97400.72
2023-05-15T13:37:51.691Z,97404.13
2023-05-15T13:40:18.360Z,97414.03
2023-05-15T13:42:45.321Z,97435.59
2023-05-15T13:45:13.557Z,97444.63
2023-05-15T13:47:40.513Z,97451.97
2023-05-15T13:50:12.905Z,97450.63
2023-05-15T13:52:40.549Z,97443.75
2023-05-15T13:55:09.858Z,97450.50
2023-05-15T13:57:38.028Z,97449.84
2023-05-15T14:00:10.835Z,97444.81
2023-05-15T14:02:37.393Z,97444.81
2023-05-15T14:05:04.924Z,97441.34
2023-05-15T14:07:31.969Z,97435.19
2023-05-15T14:09:58.793Z,97439.03
2023-05-15T14:12:27.572Z,97457.63
2023-05-15T14:14:54.031Z,97456.03
2023-05-15T14:17:20.548Z,97454.81
2023-05-15T14:19:53.049Z,97445.31
2023-05-15T14:22:19.659Z,97437.47
2023-05-15T14:24:46.267Z,97442.53
2023-05-15T14:27:12.764Z,97446.41
2023-05-15T14:29:39.863Z,97436.38
2023-05-15T14:32:06.953Z,97446.47
2023-05-15T14:34:34.052Z,97440.22
2023-05-15T14:37:00.600Z,97434.78
2023-05-15T14:39:28.812Z,97441.72
2023-05-15T14:41:55.385Z,97446.47
2023-05-15T14:44:21.854Z,97438.69
2023-05-15T14:46:48.435Z,97446.47
2023-05-15T14:49:18.103Z,97442.94
2023-05-15T14:51:46.844Z,97446.03
2023-05-15T14:54:13.333Z,97450.66
2023-05-15T14:56:39.776Z,97459.91
2023-05-15T14:59:07.203Z,97461.06
2023-05-15T15:04:24.277Z,97461.72
2023-05-15T15:06:57.106Z,97464.72
2023-05-15T15:09:24.274Z,97464.28
2023-05-15T15:11:51.381Z,97467.06
2023-05-15T15:14:17.981Z,97473.28
2023-05-15T15:16:46.891Z,97469.00
2023-05-15T15:19:14.171Z,97470.91
2023-05-15T15:21:41.338Z,97470.06
2023-05-15T15:24:07.876Z,97476.28
2023-05-15T15:26:36.118Z,97465.78
2023-05-15T15:29:04.978Z,97477.41
2023-05-15T15:31:32.075Z,97474.66
2023-05-15T15:33:58.790Z,97480.09
2023-05-15T15:36:25.969Z,97484.72
2023-05-15T15:38:52.661Z,97476.97
2023-05-15T15:41:23.555Z,97478.50
2023-05-15T15:43:50.171Z,97473.06
2023-05-15T15:46:16.732Z,97476.16
2023-05-15T15:48:43.270Z,97467.56
2023-05-15T15:51:09.793Z,97460.56
2023-05-15T15:53:38.200Z,97475.31
2023-05-15T15:56:04.855Z,97470.22
2023-05-15T15:58:31.366Z,97471.78
2023-05-15T16:00:58.147Z,97473.31
2023-05-15T16:03:25.115Z,97470.63
2023-05-15T16:05:51.894Z,97475.25
2023-05-15T16:08:20.413Z,97483.81
2023-05-15T16:10:46.873Z,97491.56
2023-05-15T16:13:13.537Z,97495.44
2023-05-15T16:15:40.009Z,97493.09
2023-05-15T16:18:07.090Z,97504.72
2023-05-15T16:20:39.009Z,97496.16
2023-05-15T16:23:05.536Z,97505.47
2023-05-15T16:25:31.983Z,97502.34
2023-05-15T16:27:58.588Z,97499.22
2023-05-15T16:30:33.443Z,97491.84
2023-05-15T16:33:12.872Z,97501.53
2023-05-15T16:35:39.422Z,97503.06
2023-05-15T16:38:05.927Z,97500.66
2023-05-15T16:40:32.466Z,97505.22
2023-05-15T16:42:58.982Z,97502.66
2023-05-15T16:45:30.405Z,97507.22
2023-05-15T16:47:57.366Z,97501.31
2023-05-15T16:50:24.290Z,97505.66
2023-05-15T16:52:50.999Z,97506.03
2023-05-15T16:55:22.111Z,97512.28
2023-05-15T16:57:48.935Z,97517.00
2023-05-15T17:00:16.344Z,97513.56
2023-05-15T17:02:43.659Z,97506.63
2023-05-15T17:05:11.283Z,97513.63
2023-05-15T17:07:38.758Z,97519.16
2023-05-15T17:10:08.900Z,97518.50
2023-05-15T17:12:35.994Z,97519.06
2023-05-15T17:15:03.010Z,97519.56
2023-05-15T17:17:30.676Z,97518.88
2023-05-15T17:19:57.396Z,97526.69
2023-05-15T17:22:24.062Z,97520.53
2023-05-15T17:24:52.160Z,97527.16
2023-05-15T17:27:19.823Z,97537.69
2023-05-15T17:29:47.089Z,97534.97
2023-05-15T17:32:13.919Z,97537.34
2023-05-15T17:34:40.582Z,97547.81
2023-05-15T17:37:08.001Z,97544.38
2023-05-15T17:39:34.520Z,97545.97
2023-05-15T17:42:03.112Z,97538.75
2023-05-15T17:44:31.230Z,97543.91
2023-05-15T17:46:58.876Z,97549.03
2023-05-15T17:49:26.210Z,97548.31
2023-05-15T17:51:57.626Z,97549.50
2023-05-15T17:54:24.138Z,97555.75
2023-05-15T17:56:50.624Z,97549.19
2023-05-15T17:59:17.303Z,97556.97
2023-05-15T18:01:43.780Z,97555.44
2023-05-15T18:04:10.627Z,97550.75
2023-05-15T18:06:37.315Z,97551.56
2023-05-15T18:09:05.129Z,97550.81
2023-05-15T18:11:31.679Z,97567.06
2023-05-15T18:13:58.203Z,97564.00
2023-05-15T18:16:27.220Z,97567.47
2023-05-15T18:18:53.895Z,97572.13
2023-05-15T18:21:20.570Z,97578.75
2023-05-15T18:23:50.437Z,97579.91
2023-05-15T18:26:16.950Z,97575.63
2023-05-15T18:28:43.760Z,97588.81
2023-05-15T18:31:10.405Z,97588.38
2023-05-15T18:33:40.575Z,97585.28
2023-05-15T18:36:11.113Z,97586.84
2023-05-15T18:38:37.575Z,97587.22
2023-05-15T18:41:04.045Z,97591.09
2023-05-15T18:43:30.566Z,97593.81
2023-05-15T18:45:57.113Z,97606.59
2023-05-15T18:48:23.617Z,97601.56
2023-05-15T18:50:52.770Z,97604.28
2023-05-15T18:53:19.239Z,97607.78
2023-05-15T18:55:45.720Z,97605.09
2023-05-15T18:58:12.465Z,97600.06
2023-05-15T19:00:39.444Z,97599.66
2023-05-15T19:03:12.240Z,97597.34
2023-05-15T19:05:38.817Z,97594.63
2023-05-15T19:08:05.426Z,97601.22
2023-05-15T19:10:35.981Z,97597.34
2023-05-15T19:13:02.460Z,97596.19
2023-05-15T19:15:28.944Z,97600.84
2023-05-15T19:17:55.540Z,97599.28
2023-05-15T19:20:22.050Z,97605.47
2023-05-15T19:22:48.829Z,97607.00
2023-05-15T19:25:15.509Z,97603.16
2023-05-15T19:27:42.061Z,97610.88
2023-05-15T19:30:10.146Z,97595.78
2023-05-15T19:32:39.327Z,97608.19
2023-05-15T19:35:06.232Z,97606.25
2023-05-15T19:37:32.728Z,97611.28
2023-05-15T19:39:59.230Z,97609.72
2023-05-15T19:42:26.217Z,97613.59
2023-05-15T19:44:52.782Z,97614.38
2023-05-15T19:47:22.858Z,97611.25
2023-05-15T19:49:49.487Z,97614.38
2023-05-15T19:52:16.769Z,97616.28
2023-05-15T19:54:44.320Z,97615.91
2023-05-15T19:57:10.941Z,97614.38
2023-05-15T19:59:37.573Z,97618.22
2023-05-15T20:02:05.805Z,97613.97
2023-05-15T20:04:34.054Z,97620.91
2023-05-15T20:07:00.587Z,97608.91
2023-05-15T20:09:27.057Z,97618.19
2023-05-15T20:11:53.601Z,97623.22
2023-05-15T20:14:20.134Z,97617.81
2023-05-15T20:16:46.820Z,97616.28
2023-05-15T20:19:13.389Z,97613.94
2023-05-15T20:24:12.425Z,97609.66
2023-05-15T20:26:39.186Z,97610.41
2023-05-15T20:29:05.707Z,97608.88
2023-05-15T20:31:32.310Z,97605.38
2023-05-15T20:34:01.388Z,97611.91
2023-05-15T20:36:28.173Z,97610.72
2023-05-15T20:38:55.825Z,97611.50
2023-05-15T20:41:23.241Z,97610.31
2023-05-15T20:43:49.962Z,97609.56
2023-05-15T20:46:16.817Z,97611.84
2023-05-15T20:48:43.395Z,97612.25
2023-05-15T20:51:09.830Z,97621.91
2023-05-15T20:53:36.546Z,97616.13
2023-05-15T20:56:03.374Z,97620.41
2023-05-15T20:58:29.981Z,97621.19
2023-05-15T21:00:58.228Z,97625.81
2023-05-15T21:03:24.845Z,97630.09
2023-05-15T21:05:54.843Z,97625.81
2023-05-15T21:08:23.188Z,97626.22
2023-05-15T21:10:53.021Z,97626.59
2023-05-15T21:13:19.546Z,97625.06
2023-05-15T21:15:46.096Z,97630.84
2023-05-15T21:18:12.854Z,97627.38
2023-05-15T21:20:40.514Z,97635.84
2023-05-15T21:23:07.679Z,97622.69
2023-05-15T21:25:34.188Z,97634.22
2023-05-15T21:28:01.285Z,97630.72
2023-05-15T21:30:27.991Z,97631.88
2023-05-15T21:32:54.712Z,97625.69
2023-05-15T21:35:21.347Z,97627.25
2023-05-15T21:37:48.407Z,97620.25
2023-05-15T21:40:18.822Z,97623.34
2023-05-15T21:42:45.983Z,97622.97
2023-05-15T21:45:12.712Z,97613.28
2023-05-15T21:47:42.644Z,97617.50
2023-05-15T21:50:09.621Z,97610.16
2023-05-15T21:52:36.174Z,97617.13
2023-05-15T21:55:02.881Z,97614.81
2023-05-15T21:57:29.419Z,97616.34
2023-05-15T21:59:55.949Z,97610.22
2023-05-15T22:02:22.783Z,97616.81
2023-05-15T22:04:49.392Z,97615.66
2023-05-15T22:07:16.556Z,97618.34
2023-05-15T22:09:44.895Z,97610.97
2023-05-15T22:12:11.443Z,97611.72
2023-05-15T22:14:50.586Z,97608.59
2023-05-15T22:17:27.342Z,97613.19
2023-05-15T22:20:02.645Z,97610.88
2023-05-15T22:22:29.247Z,97610.09
2023-05-15T22:24:57.562Z,97612.41
2023-05-15T22:27:24.065Z,97610.84
2023-05-15T22:29:50.586Z,97608.91
2023-05-15T22:32:17.124Z,97610.81
2023-05-15T22:34:43.763Z,97605.81
2023-05-15T22:37:17.932Z,97608.94
2023-05-15T22:39:44.464Z,97611.28
2023-05-15T22:42:11.055Z,97609.34
2023-05-15T22:44:37.509Z,97621.69
2023-05-15T22:47:07.820Z,97623.25
2023-05-15T22:49:34.322Z,97616.69
2023-05-15T22:52:00.965Z,97615.91
2023-05-15T22:54:27.471Z,97605.09
2023-05-15T22:56:56.389Z,97610.13
2023-05-15T22:59:23.005Z,97611.63
2023-05-15T23:01:49.779Z,97607.75
2023-05-15T23:04:17.167Z,97605.06
2023-05-15T23:06:44.134Z,97603.16
2023-05-15T23:09:13.090Z,97603.16
2023-05-15T23:11:39.559Z,97605.47
2023-05-15T23:14:06.438Z,97601.25
2023-05-15T23:16:32.930Z,97595.81
2023-05-15T23:18:59.777Z,97597.34
2023-05-15T23:21:26.792Z,97601.16
2023-05-15T23:23:53.312Z,97603.84
2023-05-15T23:26:19.954Z,97596.81
2023-05-15T23:28:47.098Z,97598.81
2023-05-15T23:31:14.104Z,97600.34
2023-05-15T23:33:40.852Z,97599.19
2023-05-15T23:36:07.445Z,97593.34
2023-05-15T23:38:35.792Z,97599.22
2023-05-15T23:41:02.608Z,97588.03
2023-05-15T23:43:29.106Z,97590.69
2023-05-15T23:45:55.621Z,97589.53
2023-05-15T23:48:22.138Z,97594.16
2023-05-15T23:50:49.730Z,97591.03
2023-05-15T23:53:16.204Z,97582.13
2023-05-15T23:55:42.711Z,97586.03
2023-05-15T23:58:09.285Z,97586.00
